sensor_id;sensor_type;location;lat;lon;timestamp;P1;durP1;ratioP1;P2;durP2;ratioP2
56927;SDS011;60850;52.502;13.426;2023-06-04T00:00:58;3.50;;;1.75;;
56927;SDS011;60850;52.502;13.426;2023-06-04T00:03:45;4.47;;;1.92;;
56927;SDS011;60850;52.502;13.426;2023-06-04T00:06:11;3.08;;;1.70;;
56927;SDS011;60850;52.502;13.426;2023-06-04T00:08:40;3.35;;;1.75;;
56927;SDS011;60850;52.502;13.426;2023-06-04T00:11:06;3.08;;;1.73;;
56927;SDS011;60850;52.502;13.426;2023-06-04T00:13:33;2.80;;;1.55;;
56927;SDS011;60850;52.502;13.426;2023-06-04T00:16:00;3.90;;;1.38;;
56927;SDS011;60850;52.502;13.426;2023-06-04T00:18:27;3.10;;;1.50;;
56927;SDS011;60850;52.502;13.426;2023-06-04T00:20:54;4.25;;;1.30;;
56927;SDS011;60850;52.502;13.426;2023-06-04T00:23:21;4.50;;;1.40;;
56927;SDS011;60850;52.502;13.426;2023-06-04T00:25:49;3.60;;;1.45;;
56927;SDS011;60850;52.502;13.426;2023-06-04T00:28:16;2.30;;;1.02;;
56927;SDS011;60850;52.502;13.426;2023-06-04T00:30:43;3.33;;;1.20;;
56927;SDS011;60850;52.502;13.426;2023-06-04T00:33:13;2.55;;;1.13;;
56927;SDS011;60850;52.502;13.426;2023-06-04T00:35:39;2.03;;;1.20;;
56927;SDS011;60850;52.502;13.426;2023-06-04T00:38:06;2.78;;;1.20;;
56927;SDS011;60850;52.502;13.426;2023-06-04T00:40:33;2.45;;;0.90;;
56927;SDS011;60850;52.502;13.426;2023-06-04T00:43:03;2.08;;;1.00;;
56927;SDS011;60850;52.502;13.426;2023-06-04T00:45:30;4.72;;;1.42;;
56927;SDS011;60850;52.502;13.426;2023-06-04T00:47:57;3.30;;;0.98;;
56927;SDS011;60850;52.502;13.426;2023-06-04T00:50:25;2.33;;;1.25;;
56927;SDS011;60850;52.502;13.426;2023-06-04T00:52:52;2.80;;;1.58;;
56927;SDS011;60850;52.502;13.426;2023-06-04T00:55:21;3.90;;;0.90;;
56927;SDS011;60850;52.502;13.426;2023-06-04T00:57:48;4.15;;;1.15;;
56927;SDS011;60850;52.502;13.426;2023-06-04T01:00:17;2.75;;;1.25;;
56927;SDS011;60850;52.502;13.426;2023-06-04T01:02:44;3.40;;;1.52;;
56927;SDS011;60850;52.502;13.426;2023-06-04T01:05:17;1.95;;;1.17;;
56927;SDS011;60850;52.502;13.426;2023-06-04T01:07:48;5.28;;;1.50;;
56927;SDS011;60850;52.502;13.426;2023-06-04T01:10:16;2.95;;;1.33;;
56927;SDS011;60850;52.502;13.426;2023-06-04T01:12:44;3.13;;;1.35;;
56927;SDS011;60850;52.502;13.426;2023-06-04T01:15:14;2.88;;;1.20;;
56927;SDS011;60850;52.502;13.426;2023-06-04T01:17:43;3.15;;;1.35;;
56927;SDS011;60850;52.502;13.426;2023-06-04T01:20:19;2.50;;;1.13;;
56927;SDS011;60850;52.502;13.426;2023-06-04T01:22:56;2.17;;;1.15;;
56927;SDS011;60850;52.502;13.426;2023-06-04T01:25:42;4.35;;;1.48;;
56927;SDS011;60850;52.502;13.426;2023-06-04T01:28:11;4.38;;;1.50;;
56927;SDS011;60850;52.502;13.426;2023-06-04T01:30:42;3.13;;;1.35;;
56927;SDS011;60850;52.502;13.426;2023-06-04T01:33:14;3.92;;;1.58;;
56927;SDS011;60850;52.502;13.426;2023-06-04T01:35:42;3.03;;;1.38;;
56927;SDS011;60850;52.502;13.426;2023-06-04T01:38:10;2.72;;;1.48;;
56927;SDS011;60850;52.502;13.426;2023-06-04T01:40:37;5.97;;;1.40;;
56927;SDS011;60850;52.502;13.426;2023-06-04T01:43:04;2.88;;;1.27;;
56927;SDS011;60850;52.502;13.426;2023-06-04T01:45:31;1.33;;;1.08;;
56927;SDS011;60850;52.502;13.426;2023-06-04T01:48:00;2.67;;;1.15;;
56927;SDS011;60850;52.502;13.426;2023-06-04T01:50:29;2.17;;;1.20;;
56927;SDS011;60850;52.502;13.426;2023-06-04T01:52:56;3.95;;;1.30;;
56927;SDS011;60850;52.502;13.426;2023-06-04T01:55:23;4.75;;;1.52;;
56927;SDS011;60850;52.502;13.426;2023-06-04T01:57:51;6.20;;;1.20;;
56927;SDS011;60850;52.502;13.426;2023-06-04T02:00:18;2.28;;;1.20;;
56927;SDS011;60850;52.502;13.426;2023-06-04T02:02:48;6.03;;;1.40;;
56927;SDS011;60850;52.502;13.426;2023-06-04T02:05:15;2.50;;;1.30;;
56927;SDS011;60850;52.502;13.426;2023-06-04T02:07:44;3.65;;;1.23;;
56927;SDS011;60850;52.502;13.426;2023-06-04T02:10:13;2.20;;;1.15;;
56927;SDS011;60850;52.502;13.426;2023-06-04T02:12:53;3.63;;;1.20;;
56927;SDS011;60850;52.502;13.426;2023-06-04T02:15:22;2.15;;;1.05;;
56927;SDS011;60850;52.502;13.426;2023-06-04T02:17:50;3.40;;;1.30;;
56927;SDS011;60850;52.502;13.426;2023-06-04T02:20:20;2.42;;;1.25;;
56927;SDS011;60850;52.502;13.426;2023-06-04T02:22:48;3.53;;;1.45;;
56927;SDS011;60850;52.502;13.426;2023-06-04T02:25:15;6.03;;;1.30;;
56927;SDS011;60850;52.502;13.426;2023-06-04T02:27:42;2.38;;;1.17;;
56927;SDS011;60850;52.502;13.426;2023-06-04T02:30:09;3.63;;;1.38;;
56927;SDS011;60850;52.502;13.426;2023-06-04T02:32:36;3.45;;;1.38;;
56927;SDS011;60850;52.502;13.426;2023-06-04T02:35:04;3.50;;;1.30;;
56927;SDS011;60850;52.502;13.426;2023-06-04T02:37:32;3.47;;;1.20;;
56927;SDS011;60850;52.502;13.426;2023-06-04T02:40:00;3.00;;;1.42;;
56927;SDS011;60850;52.502;13.426;2023-06-04T02:42:30;3.35;;;1.80;;
56927;SDS011;60850;52.502;13.426;2023-06-04T02:44:57;4.05;;;1.25;;
56927;SDS011;60850;52.502;13.426;2023-06-04T02:47:24;2.10;;;1.38;;
56927;SDS011;60850;52.502;13.426;2023-06-04T02:49:50;2.50;;;1.10;;
56927;SDS011;60850;52.502;13.426;2023-06-04T02:52:17;2.88;;;1.40;;
56927;SDS011;60850;52.502;13.426;2023-06-04T02:54:47;5.20;;;1.52;;
56927;SDS011;60850;52.502;13.426;2023-06-04T02:57:16;3.60;;;1.40;;
56927;SDS011;60850;52.502;13.426;2023-06-04T02:59:43;3.60;;;1.50;;
56927;SDS011;60850;52.502;13.426;2023-06-04T03:02:10;5.38;;;1.60;;
56927;SDS011;60850;52.502;13.426;2023-06-04T03:04:37;5.53;;;1.48;;
56927;SDS011;60850;52.502;13.426;2023-06-04T03:07:05;3.65;;;1.35;;
56927;SDS011;60850;52.502;13.426;2023-06-04T03:09:33;3.60;;;1.70;;
56927;SDS011;60850;52.502;13.426;2023-06-04T03:12:00;3.45;;;1.58;;
56927;SDS011;60850;52.502;13.426;2023-06-04T03:14:29;2.90;;;1.95;;
56927;SDS011;60850;52.502;13.426;2023-06-04T03:16:59;4.38;;;1.63;;
56927;SDS011;60850;52.502;13.426;2023-06-04T03:21:59;4.32;;;1.45;;
56927;SDS011;60850;52.502;13.426;2023-06-04T03:24:31;6.07;;;1.35;;
56927;SDS011;60850;52.502;13.426;2023-06-04T03:27:00;2.58;;;1.30;;
56927;SDS011;60850;52.502;13.426;2023-06-04T03:29:28;4.53;;;1.73;;
56927;SDS011;60850;52.502;13.426;2023-06-04T03:31:56;3.95;;;1.42;;
56927;SDS011;60850;52.502;13.426;2023-06-04T03:34:22;5.78;;;1.77;;
56927;SDS011;60850;52.502;13.426;2023-06-04T03:36:50;2.85;;;1.58;;
56927;SDS011;60850;52.502;13.426;2023-06-04T03:39:17;3.67;;;1.50;;
56927;SDS011;60850;52.502;13.426;2023-06-04T03:41:45;3.40;;;1.50;;
56927;SDS011;60850;52.502;13.426;2023-06-04T03:44:12;3.83;;;1.48;;
56927;SDS011;60850;52.502;13.426;2023-06-04T03:46:41;2.25;;;1.35;;
56927;SDS011;60850;52.502;13.426;2023-06-04T03:49:08;8.10;;;1.85;;
56927;SDS011;60850;52.502;13.426;2023-06-04T03:51:36;4.80;;;1.75;;
56927;SDS011;60850;52.502;13.426;2023-06-04T03:54:03;4.43;;;1.45;;
56927;SDS011;60850;52.502;13.426;2023-06-04T03:56:30;4.20;;;1.77;;
56927;SDS011;60850;52.502;13.426;2023-06-04T03:58:57;5.03;;;1.83;;
56927;SDS011;60850;52.502;13.426;2023-06-04T04:01:24;2.97;;;1.52;;
56927;SDS011;60850;52.502;13.426;2023-06-04T04:03:53;5.82;;;1.58;;
56927;SDS011;60850;52.502;13.426;2023-06-04T04:06:20;2.42;;;1.50;;
56927;SDS011;60850;52.502;13.426;2023-06-04T04:08:47;3.63;;;1.50;;
56927;SDS011;60850;52.502;13.426;2023-06-04T04:11:15;4.03;;;1.58;;
56927;SDS011;60850;52.502;13.426;2023-06-04T04:13:44;3.88;;;1.60;;
56927;SDS011;60850;52.502;13.426;2023-06-04T04:16:12;5.30;;;1.98;;
56927;SDS011;60850;52.502;13.426;2023-06-04T04:18:40;4.93;;;1.58;;
56927;SDS011;60850;52.502;13.426;2023-06-04T04:21:15;7.68;;;1.45;;
56927;SDS011;60850;52.502;13.426;2023-06-04T04:23:45;5.30;;;1.70;;
56927;SDS011;60850;52.502;13.426;2023-06-04T04:26:12;3.28;;;1.40;;
56927;SDS011;60850;52.502;13.426;2023-06-04T04:28:45;2.55;;;1.30;;
56927;SDS011;60850;52.502;13.426;2023-06-04T04:31:13;4.18;;;1.20;;
56927;SDS011;60850;52.502;13.426;2023-06-04T04:33:40;2.75;;;1.40;;
56927;SDS011;60850;52.502;13.426;2023-06-04T04:36:07;3.42;;;1.42;;
56927;SDS011;60850;52.502;13.426;2023-06-04T04:38:39;5.68;;;1.73;;
56927;SDS011;60850;52.502;13.426;2023-06-04T04:41:07;3.42;;;1.23;;
56927;SDS011;60850;52.502;13.426;2023-06-04T04:43:34;3.58;;;1.42;;
56927;SDS011;60850;52.502;13.426;2023-06-04T04:46:03;1.50;;;1.10;;
56927;SDS011;60850;52.502;13.426;2023-06-04T04:48:30;4.30;;;1.38;;
56927;SDS011;60850;52.502;13.426;2023-06-04T04:50:57;2.90;;;1.20;;
56927;SDS011;60850;52.502;13.426;2023-06-04T04:53:25;4.03;;;1.60;;
56927;SDS011;60850;52.502;13.426;2023-06-04T04:55:54;2.95;;;1.20;;
56927;SDS011;60850;52.502;13.426;2023-06-04T04:58:20;2.83;;;1.45;;
56927;SDS011;60850;52.502;13.426;2023-06-04T05:00:47;2.38;;;0.90;;
56927;SDS011;60850;52.502;13.426;2023-06-04T05:03:15;4.13;;;1.20;;
56927;SDS011;60850;52.502;13.426;2023-06-04T05:05:42;2.80;;;1.27;;
56927;SDS011;60850;52.502;13.426;2023-06-04T05:08:08;3.55;;;1.10;;
56927;SDS011;60850;52.502;13.426;2023-06-04T05:10:36;5.32;;;1.05;;
56927;SDS011;60850;52.502;13.426;2023-06-04T05:13:04;4.18;;;1.23;;
56927;SDS011;60850;52.502;13.426;2023-06-04T05:15:31;3.72;;;1.15;;
56927;SDS011;60850;52.502;13.426;2023-06-04T05:17:58;3.90;;;1.50;;
56927;SDS011;60850;52.502;13.426;2023-06-04T05:20:27;2.95;;;1.38;;
56927;SDS011;60850;52.502;13.426;2023-06-04T05:22:55;3.83;;;1.52;;
56927;SDS011;60850;52.502;13.426;2023-06-04T05:25:22;7.05;;;1.73;;
56927;SDS011;60850;52.502;13.426;2023-06-04T05:27:49;5.75;;;1.80;;
56927;SDS011;60850;52.502;13.426;2023-06-04T05:30:17;3.00;;;1.25;;
56927;SDS011;60850;52.502;13.426;2023-06-04T05:32:44;3.53;;;1.50;;
56927;SDS011;60850;52.502;13.426;2023-06-04T05:35:11;1.83;;;1.33;;
56927;SDS011;60850;52.502;13.426;2023-06-04T05:37:38;2.38;;;1.50;;
56927;SDS011;60850;52.502;13.426;2023-06-04T05:40:08;3.72;;;1.70;;
56927;SDS011;60850;52.502;13.426;2023-06-04T05:42:36;3.95;;;1.80;;
56927;SDS011;60850;52.502;13.426;2023-06-04T05:45:03;2.78;;;1.40;;
56927;SDS011;60850;52.502;13.426;2023-06-04T05:47:34;3.33;;;1.30;;
56927;SDS011;60850;52.502;13.426;2023-06-04T05:50:02;4.72;;;1.77;;
56927;SDS011;60850;52.502;13.426;2023-06-04T05:52:31;4.57;;;1.30;;
56927;SDS011;60850;52.502;13.426;2023-06-04T05:54:58;1.65;;;1.30;;
56927;SDS011;60850;52.502;13.426;2023-06-04T05:57:25;2.38;;;1.20;;
56927;SDS011;60850;52.502;13.426;2023-06-04T05:59:52;2.90;;;1.67;;
56927;SDS011;60850;52.502;13.426;2023-06-04T06:02:19;2.53;;;1.25;;
56927;SDS011;60850;52.502;13.426;2023-06-04T06:04:47;2.92;;;1.20;;
56927;SDS011;60850;52.502;13.426;2023-06-04T06:07:14;5.15;;;1.10;;
56927;SDS011;60850;52.502;13.426;2023-06-04T06:09:41;2.17;;;1.02;;
56927;SDS011;60850;52.502;13.426;2023-06-04T06:12:08;6.05;;;1.08;;
56927;SDS011;60850;52.502;13.426;2023-06-04T06:14:35;3.50;;;0.90;;
56927;SDS011;60850;52.502;13.426;2023-06-04T06:17:02;3.42;;;1.98;;
56927;SDS011;60850;52.502;13.426;2023-06-04T06:19:29;7.30;;;2.92;;
56927;SDS011;60850;52.502;13.426;2023-06-04T06:21:58;4.00;;;2.17;;
56927;SDS011;60850;52.502;13.426;2023-06-04T06:24:29;3.92;;;2.00;;
56927;SDS011;60850;52.502;13.426;2023-06-04T06:26:56;3.72;;;1.98;;
56927;SDS011;60850;52.502;13.426;2023-06-04T06:29:23;4.63;;;2.13;;
56927;SDS011;60850;52.502;13.426;2023-06-04T06:31:50;4.32;;;2.40;;
56927;SDS011;60850;52.502;13.426;2023-06-04T06:34:17;3.03;;;1.90;;
56927;SDS011;60850;52.502;13.426;2023-06-04T06:36:53;3.97;;;1.92;;
56927;SDS011;60850;52.502;13.426;2023-06-04T06:39:21;2.30;;;0.90;;
56927;SDS011;60850;52.502;13.426;2023-06-04T06:41:48;4.72;;;1.60;;
56927;SDS011;60850;52.502;13.426;2023-06-04T06:44:15;2.08;;;0.90;;
56927;SDS011;60850;52.502;13.426;2023-06-04T06:46:42;2.30;;;1.25;;
56927;SDS011;60850;52.502;13.426;2023-06-04T06:49:11;1.92;;;1.08;;
56927;SDS011;60850;52.502;13.426;2023-06-04T06:51:37;2.25;;;1.00;;
56927;SDS011;60850;52.502;13.426;2023-06-04T06:54:05;2.70;;;0.98;;
56927;SDS011;60850;52.502;13.426;2023-06-04T06:56:35;5.05;;;1.02;;
56927;SDS011;60850;52.502;13.426;2023-06-04T06:59:02;2.83;;;0.93;;
56927;SDS011;60850;52.502;13.426;2023-06-04T07:01:29;1.75;;;1.00;;
56927;SDS011;60850;52.502;13.426;2023-06-04T07:03:58;1.35;;;0.70;;
56927;SDS011;60850;52.502;13.426;2023-06-04T07:06:24;1.90;;;0.90;;
56927;SDS011;60850;52.502;13.426;2023-06-04T07:08:51;3.30;;;1.00;;
56927;SDS011;60850;52.502;13.426;2023-06-04T07:11:21;2.63;;;0.98;;
56927;SDS011;60850;52.502;13.426;2023-06-04T07:13:50;2.30;;;0.65;;
56927;SDS011;60850;52.502;13.426;2023-06-04T07:16:17;1.90;;;0.90;;
56927;SDS011;60850;52.502;13.426;2023-06-04T07:18:47;1.52;;;0.70;;
56927;SDS011;60850;52.502;13.426;2023-06-04T07:21:14;2.65;;;0.90;;
56927;SDS011;60850;52.502;13.426;2023-06-04T07:23:41;2.80;;;0.90;;
56927;SDS011;60850;52.502;13.426;2023-06-04T07:26:10;1.48;;;0.80;;
56927;SDS011;60850;52.502;13.426;2023-06-04T07:28:37;3.35;;;0.77;;
56927;SDS011;60850;52.502;13.426;2023-06-04T07:31:06;2.03;;;0.80;;
56927;SDS011;60850;52.502;13.426;2023-06-04T07:33:37;2.20;;;1.25;;
56927;SDS011;60850;52.502;13.426;2023-06-04T07:36:08;1.60;;;0.75;;
56927;SDS011;60850;52.502;13.426;2023-06-04T07:38:36;3.45;;;0.68;;
56927;SDS011;60850;52.502;13.426;2023-06-04T07:41:03;1.88;;;0.70;;
56927;SDS011;60850;52.502;13.426;2023-06-04T07:43:30;2.45;;;0.57;;
56927;SDS011;60850;52.502;13.426;2023-06-04T07:45:57;4.68;;;0.63;;
56927;SDS011;60850;52.502;13.426;2023-06-04T07:48:26;1.25;;;0.80;;
56927;SDS011;60850;52.502;13.426;2023-06-04T07:50:56;5.40;;;0.85;;
56927;SDS011;60850;52.502;13.426;2023-06-04T07:53:26;1.65;;;0.80;;
56927;SDS011;60850;52.502;13.426;2023-06-04T07:55:55;1.40;;;0.60;;
56927;SDS011;60850;52.502;13.426;2023-06-04T07:58:23;1.90;;;0.63;;
56927;SDS011;60850;52.502;13.426;2023-06-04T08:00:50;3.17;;;1.02;;
56927;SDS011;60850;52.502;13.426;2023-06-04T08:03:18;2.67;;;0.80;;
56927;SDS011;60850;52.502;13.426;2023-06-04T08:05:47;1.48;;;0.65;;
56927;SDS011;60850;52.502;13.426;2023-06-04T08:08:14;3.45;;;0.68;;
56927;SDS011;60850;52.502;13.426;2023-06-04T08:10:44;2.83;;;1.85;;
56927;SDS011;60850;52.502;13.426;2023-06-04T08:13:11;1.70;;;0.82;;
56927;SDS011;60850;52.502;13.426;2023-06-04T08:15:38;1.30;;;0.70;;
56927;SDS011;60850;52.502;13.426;2023-06-04T08:18:05;3.70;;;2.55;;
56927;SDS011;60850;52.502;13.426;2023-06-04T08:20:32;5.63;;;0.98;;
56927;SDS011;60850;52.502;13.426;2023-06-04T08:23:01;2.25;;;0.70;;
56927;SDS011;60850;52.502;13.426;2023-06-04T08:25:30;4.40;;;0.70;;
56927;SDS011;60850;52.502;13.426;2023-06-04T08:27:58;1.80;;;0.65;;
56927;SDS011;60850;52.502;13.426;2023-06-04T08:30:25;1.88;;;0.80;;
56927;SDS011;60850;52.502;13.426;2023-06-04T08:32:56;1.98;;;0.75;;
56927;SDS011;60850;52.502;13.426;2023-06-04T08:35:23;3.72;;;0.80;;
56927;SDS011;60850;52.502;13.426;2023-06-04T08:37:50;2.70;;;0.80;;
56927;SDS011;60850;52.502;13.426;2023-06-04T08:40:20;1.80;;;0.68;;
56927;SDS011;60850;52.502;13.426;2023-06-04T08:42:48;1.58;;;0.80;;
56927;SDS011;60850;52.502;13.426;2023-06-04T08:45:17;4.38;;;0.80;;
56927;SDS011;60850;52.502;13.426;2023-06-04T08:47:48;3.92;;;0.77;;
56927;SDS011;60850;52.502;13.426;2023-06-04T08:50:16;2.53;;;0.90;;
56927;SDS011;60850;52.502;13.426;2023-06-04T08:52:44;1.30;;;0.90;;
56927;SDS011;60850;52.502;13.426;2023-06-04T08:55:11;1.42;;;0.73;;
56927;SDS011;60850;52.502;13.426;2023-06-04T08:57:41;1.45;;;0.60;;
56927;SDS011;60850;52.502;13.426;2023-06-04T09:00:09;4.85;;;1.15;;
56927;SDS011;60850;52.502;13.426;2023-06-04T09:02:38;1.27;;;0.70;;
56927;SDS011;60850;52.502;13.426;2023-06-04T09:05:14;1.98;;;0.80;;
56927;SDS011;60850;52.502;13.426;2023-06-04T09:07:46;1.20;;;0.80;;
56927;SDS011;60850;52.502;13.426;2023-06-04T09:10:15;2.53;;;1.08;;
56927;SDS011;60850;52.502;13.426;2023-06-04T09:12:47;1.20;;;0.70;;
56927;SDS011;60850;52.502;13.426;2023-06-04T09:15:14;1.67;;;0.65;;
56927;SDS011;60850;52.502;13.426;2023-06-04T09:17:43;1.10;;;0.75;;
56927;SDS011;60850;52.502;13.426;2023-06-04T09:20:21;1.73;;;0.82;;
56927;SDS011;60850;52.502;13.426;2023-06-04T09:22:49;4.82;;;0.90;;
56927;SDS011;60850;52.502;13.426;2023-06-04T09:25:20;2.60;;;0.90;;
56927;SDS011;60850;52.502;13.426;2023-06-04T09:27:49;0.85;;;0.60;;
56927;SDS011;60850;52.502;13.426;2023-06-04T09:30:16;1.73;;;0.60;;
56927;SDS011;60850;52.502;13.426;2023-06-04T09:32:43;3.85;;;0.73;;
56927;SDS011;60850;52.502;13.426;2023-06-04T09:35:14;2.22;;;0.70;;
56927;SDS011;60850;52.502;13.426;2023-06-04T09:37:43;3.40;;;0.75;;
56927;SDS011;60850;52.502;13.426;2023-06-04T09:40:17;2.60;;;0.70;;
56927;SDS011;60850;52.502;13.426;2023-06-04T09:42:45;2.05;;;0.75;;
56927;SDS011;60850;52.502;13.426;2023-06-04T09:45:27;1.60;;;0.75;;
56927;SDS011;60850;52.502;13.426;2023-06-04T09:47:55;2.50;;;1.05;;
56927;SDS011;60850;52.502;13.426;2023-06-04T09:50:24;5.03;;;0.80;;
56927;SDS011;60850;52.502;13.426;2023-06-04T09:52:52;1.35;;;0.80;;
56927;SDS011;60850;52.502;13.426;2023-06-04T09:55:20;1.40;;;0.73;;
56927;SDS011;60850;52.502;13.426;2023-06-04T09:57:48;2.08;;;0.85;;
56927;SDS011;60850;52.502;13.426;2023-06-04T10:00:17;2.90;;;0.95;;
56927;SDS011;60850;52.502;13.426;2023-06-04T10:02:48;1.33;;;0.52;;
56927;SDS011;60850;52.502;13.426;2023-06-04T10:05:16;1.23;;;0.60;;
56927;SDS011;60850;52.502;13.426;2023-06-04T10:07:47;1.35;;;0.65;;
56927;SDS011;60850;52.502;13.426;2023-06-04T10:10:19;1.40;;;0.75;;
56927;SDS011;60850;52.502;13.426;2023-06-04T10:12:50;2.65;;;1.73;;
56927;SDS011;60850;52.502;13.426;2023-06-04T10:15:21;2.00;;;1.20;;
56927;SDS011;60850;52.502;13.426;2023-06-04T10:17:50;3.83;;;1.05;;
56927;SDS011;60850;52.502;13.426;2023-06-04T10:20:20;1.50;;;0.98;;
56927;SDS011;60850;52.502;13.426;2023-06-04T10:22:49;1.33;;;0.63;;
56927;SDS011;60850;52.502;13.426;2023-06-04T10:25:16;1.63;;;0.80;;
56927;SDS011;60850;52.502;13.426;2023-06-04T10:27:44;2.22;;;0.93;;
56927;SDS011;60850;52.502;13.426;2023-06-04T10:30:13;4.25;;;1.27;;
56927;SDS011;60850;52.502;13.426;2023-06-04T10:32:40;1.33;;;0.52;;
56927;SDS011;60850;52.502;13.426;2023-06-04T10:35:09;1.85;;;0.70;;
56927;SDS011;60850;52.502;13.426;2023-06-04T10:37:37;1.95;;;0.70;;
56927;SDS011;60850;52.502;13.426;2023-06-04T10:40:04;2.40;;;1.25;;
56927;SDS011;60850;52.502;13.426;2023-06-04T10:42:37;4.28;;;0.80;;
56927;SDS011;60850;52.502;13.426;2023-06-04T10:45:06;1.33;;;0.77;;
56927;SDS011;60850;52.502;13.426;2023-06-04T10:47:35;1.48;;;0.60;;
56927;SDS011;60850;52.502;13.426;2023-06-04T10:50:10;1.75;;;0.85;;
56927;SDS011;60850;52.502;13.426;2023-06-04T10:55:16;3.03;;;0.98;;
56927;SDS011;60850;52.502;13.426;2023-06-04T10:57:59;2.35;;;0.60;;
56927;SDS011;60850;52.502;13.426;2023-06-04T11:00:35;5.30;;;0.88;;
56927;SDS011;60850;52.502;13.426;2023-06-04T11:03:04;2.22;;;0.80;;
56927;SDS011;60850;52.502;13.426;2023-06-04T11:05:35;4.43;;;0.85;;
56927;SDS011;60850;52.502;13.426;2023-06-04T11:08:03;2.28;;;1.52;;
56927;SDS011;60850;52.502;13.426;2023-06-04T11:10:31;1.45;;;1.05;;
56927;SDS011;60850;52.502;13.426;2023-06-04T11:13:01;2.13;;;1.10;;
56927;SDS011;60850;52.502;13.426;2023-06-04T11:15:37;2.78;;;0.88;;
56927;SDS011;60850;52.502;13.426;2023-06-04T11:18:04;4.38;;;0.90;;
56927;SDS011;60850;52.502;13.426;2023-06-04T11:20:31;3.00;;;0.82;;
56927;SDS011;60850;52.502;13.426;2023-06-04T11:22:58;1.98;;;0.75;;
56927;SDS011;60850;52.502;13.426;2023-06-04T11:25:29;3.35;;;0.70;;
56927;SDS011;60850;52.502;13.426;2023-06-04T11:28:00;3.33;;;1.00;;
56927;SDS011;60850;52.502;13.426;2023-06-04T11:30:28;3.72;;;0.88;;
56927;SDS011;60850;52.502;13.426;2023-06-04T11:33:02;1.58;;;0.98;;
56927;SDS011;60850;52.502;13.426;2023-06-04T11:35:30;2.13;;;0.90;;
56927;SDS011;60850;52.502;13.426;2023-06-04T11:37:58;4.20;;;1.05;;
56927;SDS011;60850;52.502;13.426;2023-06-04T11:40:25;1.88;;;0.88;;
56927;SDS011;60850;52.502;13.426;2023-06-04T11:42:53;1.40;;;0.80;;
56927;SDS011;60850;52.502;13.426;2023-06-04T11:45:22;2.08;;;0.75;;
56927;SDS011;60850;52.502;13.426;2023-06-04T11:47:49;1.83;;;0.85;;
56927;SDS011;60850;52.502;13.426;2023-06-04T11:50:18;3.28;;;1.00;;
56927;SDS011;60850;52.502;13.426;2023-06-04T11:52:45;2.60;;;1.10;;
56927;SDS011;60850;52.502;13.426;2023-06-04T11:55:13;3.03;;;1.05;;
56927;SDS011;60850;52.502;13.426;2023-06-04T11:57:42;3.78;;;1.08;;
56927;SDS011;60850;52.502;13.426;2023-06-04T12:00:10;2.15;;;1.10;;
56927;SDS011;60850;52.502;13.426;2023-06-04T12:02:48;0.82;;;0.70;;
56927;SDS011;60850;52.502;13.426;2023-06-04T12:05:17;2.30;;;0.80;;
56927;SDS011;60850;52.502;13.426;2023-06-04T12:07:45;2.22;;;0.75;;
56927;SDS011;60850;52.502;13.426;2023-06-04T12:10:13;3.70;;;0.85;;
56927;SDS011;60850;52.502;13.426;2023-06-04T12:12:40;1.27;;;0.80;;
56927;SDS011;60850;52.502;13.426;2023-06-04T12:15:07;2.28;;;0.80;;
56927;SDS011;60850;52.502;13.426;2023-06-04T12:17:35;4.32;;;0.93;;
56927;SDS011;60850;52.502;13.426;2023-06-04T12:20:05;1.63;;;1.00;;
56927;SDS011;60850;52.502;13.426;2023-06-04T12:22:43;1.67;;;0.90;;
56927;SDS011;60850;52.502;13.426;2023-06-04T12:25:23;2.55;;;1.85;;
56927;SDS011;60850;52.502;13.426;2023-06-04T12:27:51;1.23;;;0.70;;
56927;SDS011;60850;52.502;13.426;2023-06-04T12:30:18;3.25;;;0.68;;
56927;SDS011;60850;52.502;13.426;2023-06-04T12:32:45;2.85;;;1.05;;
56927;SDS011;60850;52.502;13.426;2023-06-04T12:35:14;4.00;;;0.80;;
56927;SDS011;60850;52.502;13.426;2023-06-04T12:37:41;4.65;;;1.30;;
56927;SDS011;60850;52.502;13.426;2023-06-04T12:40:08;3.00;;;1.00;;
56927;SDS011;60850;52.502;13.426;2023-06-04T12:42:39;2.45;;;1.10;;
56927;SDS011;60850;52.502;13.426;2023-06-04T12:45:06;3.08;;;1.10;;
56927;SDS011;60850;52.502;13.426;2023-06-04T12:47:35;4.43;;;0.98;;
56927;SDS011;60850;52.502;13.426;2023-06-04T12:50:03;2.45;;;0.80;;
56927;SDS011;60850;52.502;13.426;2023-06-04T12:52:31;2.28;;;0.95;;
56927;SDS011;60850;52.502;13.426;2023-06-04T12:54:58;2.63;;;1.02;;
56927;SDS011;60850;52.502;13.426;2023-06-04T12:57:25;2.08;;;0.70;;
56927;SDS011;60850;52.502;13.426;2023-06-04T12:59:54;4.22;;;1.13;;
56927;SDS011;60850;52.502;13.426;2023-06-04T13:02:22;1.65;;;1.00;;
56927;SDS011;60850;52.502;13.426;2023-06-04T13:04:49;3.85;;;1.00;;
56927;SDS011;60850;52.502;13.426;2023-06-04T13:07:19;3.72;;;0.85;;
56927;SDS011;60850;52.502;13.426;2023-06-04T13:09:48;2.40;;;1.05;;
56927;SDS011;60850;52.502;13.426;2023-06-04T13:12:15;4.38;;;1.20;;
56927;SDS011;60850;52.502;13.426;2023-06-04T13:14:42;2.20;;;0.88;;
56927;SDS011;60850;52.502;13.426;2023-06-04T13:17:09;3.05;;;1.10;;
56927;SDS011;60850;52.502;13.426;2023-06-04T13:19:36;2.70;;;1.25;;
56927;SDS011;60850;52.502;13.426;2023-06-04T13:22:02;1.73;;;1.30;;
56927;SDS011;60850;52.502;13.426;2023-06-04T13:24:30;4.85;;;2.40;;
56927;SDS011;60850;52.502;13.426;2023-06-04T13:26:58;6.45;;;0.90;;
56927;SDS011;60850;52.502;13.426;2023-06-04T13:29:26;1.40;;;0.80;;
56927;SDS011;60850;52.502;13.426;2023-06-04T13:31:52;2.95;;;0.98;;
56927;SDS011;60850;52.502;13.426;2023-06-04T13:34:20;5.38;;;1.20;;
56927;SDS011;60850;52.502;13.426;2023-06-04T13:36:46;2.20;;;0.80;;
56927;SDS011;60850;52.502;13.426;2023-06-04T13:39:13;1.70;;;0.85;;
56927;SDS011;60850;52.502;13.426;2023-06-04T13:41:40;3.45;;;0.90;;
56927;SDS011;60850;52.502;13.426;2023-06-04T13:44:09;2.55;;;0.80;;
56927;SDS011;60850;52.502;13.426;2023-06-04T13:46:35;1.25;;;0.75;;
56927;SDS011;60850;52.502;13.426;2023-06-04T13:49:02;1.48;;;0.90;;
56927;SDS011;60850;52.502;13.426;2023-06-04T13:51:30;4.15;;;1.10;;
56927;SDS011;60850;52.502;13.426;2023-06-04T13:53:57;1.90;;;0.70;;
56927;SDS011;60850;52.502;13.426;2023-06-04T13:56:24;1.30;;;0.88;;
56927;SDS011;60850;52.502;13.426;2023-06-04T13:58:51;1.38;;;0.90;;
56927;SDS011;60850;52.502;13.426;2023-06-04T14:01:19;3.85;;;1.05;;
56927;SDS011;60850;52.502;13.426;2023-06-04T14:03:47;1.27;;;0.80;;
56927;SDS011;60850;52.502;13.426;2023-06-04T14:06:14;2.17;;;1.15;;
56927;SDS011;60850;52.502;13.426;2023-06-04T14:08:41;2.13;;;1.00;;
56927;SDS011;60850;52.502;13.426;2023-06-04T14:11:08;2.33;;;0.70;;
56927;SDS011;60850;52.502;13.426;2023-06-04T14:13:36;1.70;;;1.00;;
56927;SDS011;60850;52.502;13.426;2023-06-04T14:16:03;2.92;;;1.10;;
56927;SDS011;60850;52.502;13.426;2023-06-04T14:18:32;1.50;;;1.00;;
56927;SDS011;60850;52.502;13.426;2023-06-04T14:20:59;1.50;;;1.08;;
56927;SDS011;60850;52.502;13.426;2023-06-04T14:23:26;3.78;;;0.90;;
56927;SDS011;60850;52.502;13.426;2023-06-04T14:25:53;6.65;;;0.93;;
56927;SDS011;60850;52.502;13.426;2023-06-04T14:28:20;1.73;;;0.93;;
56927;SDS011;60850;52.502;13.426;2023-06-04T14:30:47;1.30;;;0.85;;
56927;SDS011;60850;52.502;13.426;2023-06-04T14:33:14;3.13;;;1.00;;
56927;SDS011;60850;52.502;13.426;2023-06-04T14:35:42;2.05;;;0.73;;
56927;SDS011;60850;52.502;13.426;2023-06-04T14:38:12;3.13;;;0.80;;
56927;SDS011;60850;52.502;13.426;2023-06-04T14:40:39;4.10;;;0.73;;
56927;SDS011;60850;52.502;13.426;2023-06-04T14:43:07;2.80;;;1.00;;
56927;SDS011;60850;52.502;13.426;2023-06-04T14:45:33;1.83;;;1.05;;